Time;durP1;ratioP1;P1;durP2;ratioP2;P2;SDS_P1;SDS_P2;PMS_P1;PMS_P2;Temp;Humidity;BMP_temperature;BMP_pressure;BME280_temperature;BME280_humidity;BME280_pressure;Samples;Min_cycle;Max_cycle;Signal;HPM_P1;HPM_P2
2021/04/12 00:02:48;;;;;;;40.05;22.92;;;11.60;39.50;;;;;;5075371;28;20092;-75
2021/04/12 00:05:41;;;;;;;44.90;23.88;;;11.50;39.50;;;;;;5075274;28;20028;-75
2021/04/12 00:08:21;;;;;;;39.13;22.35;;;11.50;39.60;;;;;;5075440;28;20029;-76
2021/04/12 00:11:18;;;;;;;42.50;23.58;;;11.50;39.50;;;;;;5075441;28;20060;-76
2021/04/12 00:14:01;;;;;;;40.25;24.27;;;11.50;39.80;;;;;;5074127;28;20110;-76
2021/04/12 00:16:39;;;;;;;43.53;24.15;;;11.50;39.90;;;;;;5074279;28;20021;-76
2021/04/12 00:19:28;;;;;;;44.80;23.38;;;11.50;40.10;;;;;;5075217;28;20082;-76
2021/04/12 00:22:27;;;;;;;38.33;24.40;;;11.50;40.20;;;;;;5075142;28;20021;-75
2021/04/12 00:25:00;;;;;;;41.65;25.20;;;11.50;40.40;;;;;;5074902;28;20123;-75
2021/04/12 00:27:45;;;;;;;43.33;25.67;;;11.50;40.40;;;;;;5075052;28;20067;-75
2021/04/12 00:30:21;;;;;;;44.53;25.35;;;11.50;40.60;;;;;;5073701;28;20037;-75
2021/04/12 00:33:13;;;;;;;45.85;25.85;;;11.50;40.60;;;;;;5074845;28;20462;-75
2021/04/12 00:36:03;;;;;;;42.17;24.85;;;11.50;41.30;;;;;;5064188;28;20041;-75
2021/04/12 00:39:10;;;;;;;44.72;26.15;;;11.50;40.60;;;;;;5075403;28;20413;-75
2021/04/12 00:42:08;;;;;;;46.70;25.17;;;11.40;40.60;;;;;;5052455;28;20029;-74
2021/04/12 00:44:51;;;;;;;42.80;24.52;;;11.40;40.70;;;;;;5074983;28;20032;-75
2021/04/12 00:47:43;;;;;;;45.85;26.60;;;11.40;40.60;;;;;;5075137;28;20033;-74
2021/04/12 00:51:01;;;;;;;43.63;23.77;;;11.40;40.90;;;;;;5074482;28;20044;-75
2021/04/12 00:53:42;;;;;;;46.58;25.25;;;11.40;40.90;;;;;;5064834;28;20432;-75
2021/04/12 00:56:27;;;;;;;44.40;26.00;;;11.30;40.80;;;;;;5074318;28;20052;-76
2021/04/12 00:59:20;;;;;;;46.47;26.42;;;11.30;41.00;;;;;;5072680;28;20040;-74
2021/04/12 01:02:15;;;;;;;43.53;25.77;;;11.30;41.10;;;;;;5074660;28;20028;-75
2021/04/12 01:04:52;;;;;;;45.13;26.02;;;11.30;41.20;;;;;;5074219;28;20435;-75
2021/04/12 01:07:44;;;;;;;41.58;25.70;;;11.30;41.20;;;;;;5073977;28;20029;-74
2021/04/12 01:10:28;;;;;;;45.53;25.80;;;11.30;41.30;;;;;;5074219;28;20032;-75
2021/04/12 01:13:06;;;;;;;46.22;25.77;;;11.30;41.90;;;;;;5074116;28;20064;-75
2021/04/12 01:15:46;;;;;;;52.65;27.80;;;11.30;41.70;;;;;;5073981;28;20028;-76
2021/04/12 01:18:24;;;;;;;49.70;26.55;;;11.20;41.70;;;;;;5072490;28;20032;-75
2021/04/12 01:21:07;;;;;;;51.28;27.63;;;11.20;41.80;;;;;;5074282;28;20032;-76
2021/04/12 01:24:10;;;;;;;45.72;26.90;;;11.20;42.10;;;;;;5073846;28;20024;-76
2021/04/12 01:26:53;;;;;;;49.20;27.05;;;11.20;42.30;;;;;;5074020;28;20024;-76
2021/04/12 01:29:43;;;;;;;41.88;26.00;;;11.10;42.20;;;;;;5073459;28;20460;-76
2021/04/12 01:32:09;;;;;;;42.97;26.48;;;11.10;42.40;;;;;;5073793;28;20073;-76
2021/04/12 01:35:02;;;;;;;44.95;25.60;;;11.10;42.40;;;;;;5073682;28;20104;-74
2021/04/12 01:37:58;;;;;;;45.13;26.02;;;11.00;42.70;;;;;;5073227;28;20370;-76
2021/04/12 01:40:26;;;;;;;42.78;27.25;;;11.00;42.80;;;;;;5073252;28;20032;-75
2021/04/12 01:43:02;;;;;;;45.55;26.30;;;11.00;42.70;;;;;;5071587;28;20033;-75
2021/04/12 01:45:31;;;;;;;52.28;25.58;;;11.00;43.10;;;;;;5053172;28;20414;-75
2021/04/12 01:48:24;;;;;;;40.70;25.27;;;11.00;43.30;;;;;;5067528;28;20048;-75
2021/04/12 01:51:08;;;;;;;57.22;32.50;;;11.00;43.40;;;;;;5073392;28;20036;-75
2021/04/12 01:53:49;;;;;;;51.38;29.20;;;10.90;43.40;;;;;;5072000;28;20029;-75
2021/04/12 01:56:17;;;;;;;46.75;27.60;;;10.90;43.50;;;;;;5073349;28;20490;-75
2021/04/12 01:59:03;;;;;;;45.65;27.15;;;10.90;43.40;;;;;;5073411;28;20078;-75
2021/04/12 02:01:51;;;;;;;51.55;26.80;;;10.90;43.40;;;;;;5072081;28;20028;-75
2021/04/12 02:04:54;;;;;;;45.70;25.73;;;10.90;43.40;;;;;;5071459;28;20024;-76
2021/04/12 02:07:44;;;;;;;44.80;26.13;;;10.90;43.30;;;;;;5073513;28;20058;-75
2021/04/12 02:10:47;;;;;;;49.42;25.40;;;10.80;43.20;;;;;;5073065;28;20036;-77
2021/04/12 02:13:27;;;;;;;43.97;25.20;;;10.80;43.10;;;;;;5073170;28;20070;-75
2021/04/12 02:16:30;;;;;;;40.22;24.60;;;10.80;43.00;;;;;;5073402;28;20362;-75
2021/04/12 02:19:19;;;;;;;44.28;25.55;;;10.80;43.10;;;;;;5073329;28;20071;-75
2021/04/12 02:21:59;;;;;;;48.75;25.88;;;10.80;42.90;;;;;;5072897;28;20485;-76
2021/04/12 02:24:48;;;;;;;45.88;27.38;;;10.80;43.00;;;;;;5073108;28;20025;-75
2021/04/12 02:27:22;;;;;;;38.95;24.25;;;10.80;43.10;;;;;;5071950;28;20090;-76
2021/04/12 02:30:18;;;;;;;45.35;25.60;;;10.70;43.10;;;;;;5073599;28;20024;-75
2021/04/12 02:33:03;;;;;;;47.13;26.77;;;10.70;43.20;;;;;;5073351;28;20030;-76
2021/04/12 02:35:37;;;;;;;42.17;25.67;;;10.70;43.20;;;;;;5073294;28;20408;-75
2021/04/12 02:38:06;;;;;;;47.33;26.38;;;10.70;43.20;;;;;;5073156;28;20028;-75
2021/04/12 02:41:02;;;;;;;46.65;25.77;;;10.70;43.30;;;;;;5072499;28;20033;-76
2021/04/12 02:44:04;;;;;;;42.55;25.42;;;10.60;43.70;;;;;;5072556;28;20451;-75
2021/04/12 02:47:06;;;;;;;48.97;27.15;;;10.60;43.80;;;;;;5072995;28;20025;-74
2021/04/12 02:49:49;;;;;;;41.55;24.45;;;10.50;43.90;;;;;;5072646;28;20127;-75
2021/04/12 02:52:18;;;;;;;42.85;25.67;;;10.50;43.90;;;;;;5072554;28;20524;-75
2021/04/12 02:55:02;;;;;;;47.33;27.48;;;10.50;43.90;;;;;;5072383;28;20107;-75
2021/04/12 02:57:39;;;;;;;45.40;26.30;;;10.50;44.30;;;;;;5071263;28;20394;-75
2021/04/12 03:00:37;;;;;;;42.65;26.08;;;10.40;44.20;;;;;;5072343;28;20033;-75
2021/04/12 03:03:17;;;;;;;49.30;28.60;;;10.40;44.60;;;;;;5070401;28;20044;-75
2021/04/12 03:06:29;;;;;;;47.95;27.17;;;10.40;44.60;;;;;;5072353;28;20025;-76
2021/04/12 03:09:06;;;;;;;48.70;26.50;;;10.40;44.80;;;;;;5072644;28;20059;-76
2021/04/12 03:11:50;;;;;;;46.72;26.95;;;10.30;44.80;;;;;;5071199;28;20033;-76
2021/04/12 03:14:34;;;;;;;43.22;26.35;;;10.30;45.10;;;;;;5072942;28;20036;-76
2021/04/12 03:17:03;;;;;;;48.33;26.83;;;10.20;45.30;;;;;;5075908;28;20027;-75
2021/04/12 03:19:31;;;;;;;46.28;26.13;;;10.20;45.30;;;;;;5076068;28;20489;-75
2021/04/12 03:21:57;;;;;;;47.63;26.90;;;10.10;45.40;;;;;;5075782;28;20048;-75
2021/04/12 03:24:30;;;;;;;44.22;25.90;;;10.10;45.50;;;;;;5075625;28;20390;-76
2021/04/12 03:27:12;;;;;;;46.90;27.63;;;10.10;45.80;;;;;;5076103;28;20029;-76
2021/04/12 03:29:47;;;;;;;49.58;26.42;;;10.10;45.90;;;;;;5075602;28;20397;-76
2021/04/12 03:32:16;;;;;;;;;;;10.10;46.00;;;;;;5076202;28;20359;-75
2021/04/12 03:35:00;;;;;;;47.20;25.67;;;10.00;45.50;;;;;;5075571;28;19953;-76
2021/04/12 03:37:55;;;;;;;48.05;26.58;;;10.00;45.70;;;;;;5075480;28;20054;-75
2021/04/12 03:40:29;;;;;;;45.28;25.73;;;10.00;45.90;;;;;;5073458;28;20040;-76
2021/04/12 03:43:18;;;;;;;45.70;26.58;;;10.00;45.90;;;;;;5075291;28;20546;-76
2021/04/12 03:46:06;;;;;;;47.83;26.15;;;10.00;46.20;;;;;;5075599;28;20029;-75
2021/04/12 03:48:44;;;;;;;47.60;26.10;;;9.90;46.20;;;;;;5075578;28;20021;-77
2021/04/12 03:51:58;;;;;;;45.97;26.17;;;9.90;46.30;;;;;;5075867;28;20036;-76
2021/04/12 03:54:48;;;;;;;51.33;27.70;;;10.00;46.40;;;;;;5073458;28;20615;-77
2021/04/12 03:57:28;;;;;;;46.10;27.33;;;10.00;46.50;;;;;;5075266;28;20029;-75
2021/04/12 04:00:31;;;;;;;47.33;26.77;;;10.00;46.50;;;;;;5075636;28;20485;-76
2021/04/12 04:03:25;;;;;;;49.35;26.33;;;10.00;46.80;;;;;;5075169;28;20021;-76
2021/04/12 04:06:16;;;;;;;49.42;27.30;;;10.00;46.80;;;;;;5075542;28;20024;-76
2021/04/12 04:08:49;;;;;;;46.28;27.48;;;10.10;46.90;;;;;;5075715;28;20360;-75
2021/04/12 04:11:51;;;;;;;46.87;27.03;;;10.20;46.90;;;;;;5075316;28;20021;-76
2021/04/12 04:14:41;;;;;;;57.67;29.15;;;10.20;46.80;;;;;;5075696;28;20352;-77
2021/04/12 04:17:26;;;;;;;50.72;27.73;;;10.30;46.70;;;;;;5075123;28;20035;-76
2021/04/12 04:20:04;;;;;;;;;;;10.40;46.60;;;;;;5075976;28;20418;-75
2021/04/12 04:22:57;;;;;;;49.95;27.38;;;10.50;46.20;;;;;;5074949;28;20368;-75
2021/04/12 04:25:35;;;;;;;46.90;26.88;;;10.60;46.10;;;;;;5074671;28;20467;-76
2021/04/12 04:28:20;;;;;;;45.65;26.75;;;10.60;45.90;;;;;;5074713;28;20082;-76
2021/04/12 04:31:26;;;;;;;45.65;27.67;;;10.70;46.00;;;;;;5075080;28;20028;-76
2021/04/12 04:33:59;;;;;;;47.50;27.33;;;10.80;46.00;;;;;;5075199;28;20486;-76
2021/04/12 04:36:36;;;;;;;49.42;27.35;;;10.90;45.70;;;;;;5074811;28;20032;-76
2021/04/12 04:39:36;;;;;;;45.03;26.85;;;11.00;45.70;;;;;;5074342;28;20388;-76
2021/04/12 04:42:39;;;;;;;50.83;27.55;;;11.00;45.70;;;;;;5073776;28;20035;-75
2021/04/12 04:45:20;;;;;;;44.17;27.15;;;11.10;45.50;;;;;;5074632;28;20033;-75
2021/04/12 04:48:23;;;;;;;55.63;28.50;;;11.20;45.40;;;;;;5074414;28;20024;-75
2021/04/12 04:51:01;;;;;;;49.25;27.98;;;11.30;45.40;;;;;;5073111;28;20033;-76
2021/04/12 04:54:03;;;;;;;50.03;29.60;;;11.30;45.30;;;;;;5074649;28;20067;-75
2021/04/12 04:56:35;;;;;;;49.80;28.35;;;11.30;45.30;;;;;;5074222;28;20039;-75
2021/04/12 04:59:24;;;;;;;48.25;28.83;;;11.30;45.30;;;;;;5073106;28;20040;-75
2021/04/12 05:02:01;;;;;;;43.40;27.90;;;11.40;45.40;;;;;;5074489;28;20074;-75
2021/04/12 05:05:08;;;;;;;51.33;29.55;;;11.40;45.40;;;;;;5074442;28;20029;-76
2021/04/12 05:08:01;;;;;;;56.92;30.75;;;11.50;45.50;;;;;;5073364;28;20036;-74
2021/04/12 05:10:42;;;;;;;53.65;30.45;;;11.50;45.50;;;;;;5073970;28;20037;-76
2021/04/12 05:13:10;;;;;;;52.47;30.52;;;11.50;45.60;;;;;;5072785;28;20025;-75
2021/04/12 05:16:20;;;;;;;54.03;30.95;;;11.60;45.60;;;;;;5072694;28;20035;-75
2021/04/12 05:19:20;;;;;;;53.80;30.25;;;11.60;45.70;;;;;;5073655;28;20142;-76
2021/04/12 05:22:07;;;;;;;48.97;30.02;;;11.70;45.70;;;;;;5074044;28;20047;-75
2021/04/12 05:24:51;;;;;;;57.58;32.38;;;11.70;45.60;;;;;;5073971;28;20029;-76
2021/04/12 05:27:38;;;;;;;56.95;31.83;;;11.70;45.50;;;;;;5074134;28;20028;-76
2021/04/12 05:30:28;;;;;;;51.33;29.58;;;11.80;45.70;;;;;;5073596;28;20041;-77
2021/04/12 05:32:54;;;;;;;53.90;31.38;;;11.80;45.80;;;;;;5073863;28;20031;-77
2021/04/12 05:35:39;;;;;;;54.13;31.80;;;11.90;45.90;;;;;;5073276;28;20346;-76
2021/04/12 05:38:17;;;;;;;55.67;31.67;;;11.90;46.20;;;;;;5071809;28;20032;-77
2021/04/12 05:40:58;;;;;;;50.75;31.15;;;11.90;46.40;;;;;;5073308;28;20032;-76
2021/04/12 05:43:35;;;;;;;49.72;31.42;;;11.90;46.80;;;;;;5072061;28;20123;-76
2021/04/12 05:46:15;;;;;;;48.22;31.13;;;11.90;47.00;;;;;;5073382;28;20028;-75
2021/04/12 05:49:28;;;;;;;52.95;30.95;;;11.90;47.60;;;;;;5073358;28;20179;-77
2021/04/12 05:52:00;;;;;;;48.72;31.88;;;11.90;47.90;;;;;;5072600;28;20119;-77
2021/04/12 05:55:02;;;;;;;52.15;30.20;;;11.90;48.10;;;;;;5073172;28;20021;-76
2021/04/12 05:57:50;;;;;;;55.25;32.65;;;11.80;48.50;;;;;;5073732;28;20039;-76
2021/04/12 06:00:47;;;;;;;49.83;30.30;;;11.80;48.90;;;;;;5073410;28;20028;-75
2021/04/12 06:03:51;;;;;;;49.95;30.38;;;11.80;49.40;;;;;;5072468;28;20036;-76
2021/04/12 06:06:58;;;;;;;45.67;31.13;;;11.70;49.70;;;;;;5070991;28;20127;-76
2021/04/12 06:09:36;;;;;;;48.35;29.38;;;11.70;50.40;;;;;;5072264;28;20048;-80
2021/04/12 06:12:07;;;;;;;41.33;28.35;;;11.70;50.60;;;;;;5073179;28;20524;-77
2021/04/12 06:14:52;;;;;;;49.45;28.60;;;11.70;50.50;;;;;;5073138;28;20051;-76
2021/04/12 06:17:46;;;;;;;42.35;26.95;;;11.70;50.90;;;;;;5072807;28;20056;-76
2021/04/12 06:20:30;;;;;;;45.30;28.30;;;11.70;50.90;;;;;;5069944;28;20060;-77
2021/04/12 06:23:34;;;;;;;47.93;27.97;;;11.80;50.90;;;;;;5070605;28;20062;-76
2021/04/12 06:26:24;;;;;;;46.95;28.00;;;11.80;50.80;;;;;;5070913;28;20692;-76
2021/04/12 06:29:17;;;;;;;44.58;29.27;;;11.80;51.00;;;;;;5069723;28;20048;-77
2021/04/12 06:32:01;;;;;;;43.50;27.75;;;11.90;51.10;;;;;;5070817;28;20020;-76
2021/04/12 06:35:30;;;;;;;45.67;28.23;;;11.90;51.10;;;;;;5071597;28;20356;-76
2021/04/12 06:38:33;;;;;;;44.35;27.45;;;12.00;51.20;;;;;;5029754;28;20116;-76
2021/04/12 06:41:23;;;;;;;47.53;28.55;;;12.00;50.80;;;;;;5010993;28;20037;-76
2021/04/12 06:44:25;;;;;;;45.50;27.45;;;12.00;50.80;;;;;;5060646;28;20391;-77
2021/04/12 06:47:12;;;;;;;44.83;27.98;;;12.00;50.70;;;;;;5069293;28;20028;-77
2021/04/12 06:50:11;;;;;;;41.03;26.83;;;12.00;51.00;;;;;;5072645;28;20039;-76
2021/04/12 06:52:56;;;;;;;40.38;26.58;;;12.00;51.30;;;;;;5074609;28;20028;-77
2021/04/12 06:55:30;;;;;;;46.17;27.17;;;12.00;51.30;;;;;;5074709;28;20028;-78
2021/04/12 06:58:11;;;;;;;42.47;27.17;;;12.00;51.60;;;;;;5073847;28;20024;-75
2021/04/12 07:01:01;;;;;;;45.85;27.77;;;12.00;52.10;;;;;;5073831;28;20265;-76
2021/04/12 07:03:46;;;;;;;47.13;29.08;;;12.00;52.40;;;;;;5075167;28;20020;-76
2021/04/12 07:06:30;;;;;;;44.08;28.58;;;12.00;53.00;;;;;;5072699;28;20488;-76
2021/04/12 07:09:40;;;;;;;47.63;28.42;;;12.00;52.90;;;;;;5072515;28;20044;-77
2021/04/12 07:12:15;;;;;;;41.38;27.00;;;12.00;53.50;;;;;;5052118;28;20033;-77
2021/04/12 07:15:00;;;;;;;;;;;12.00;53.30;;;;;;5075565;28;20029;-77
2021/04/12 07:18:08;;;;;;;47.00;27.60;;;12.00;52.90;;;;;;5074968;28;19904;-77
2021/04/12 07:20:37;;;;;;;48.53;28.75;;;12.10;53.40;;;;;;5073299;28;20051;-76
2021/04/12 07:23:36;;;;;;;42.70;28.92;;;12.10;53.50;;;;;;5075151;28;20024;-77
2021/04/12 07:26:17;;;;;;;41.90;29.08;;;12.10;53.60;;;;;;5075930;28;20029;-77
2021/04/12 07:28:49;;;;;;;45.13;29.67;;;12.00;53.60;;;;;;5074674;28;20024;-76
2021/04/12 07:31:41;;;;;;;47.45;29.08;;;12.00;53.60;;;;;;5076131;28;20117;-78
2021/04/12 07:34:23;;;;;;;46.30;29.70;;;12.00;54.10;;;;;;5075872;28;20458;-75
2021/04/12 07:37:00;;;;;;;45.60;29.17;;;11.90;54.30;;;;;;5075028;28;20070;-77
2021/04/12 07:39:26;;;;;;;42.53;27.80;;;11.90;54.40;;;;;;5074319;28;20044;-78
2021/04/12 07:42:13;;;;;;;46.42;30.33;;;11.90;54.40;;;;;;5075177;28;20027;-76
2021/04/12 07:45:33;;;;;;;43.30;28.60;;;12.00;54.70;;;;;;5074397;28;20074;-76
2021/04/12 07:48:17;;;;;;;42.38;27.80;;;11.90;54.70;;;;;;5075857;28;20028;-76
2021/04/12 07:51:00;;;;;;;42.73;27.87;;;12.00;54.70;;;;;;5075463;28;20036;-76
2021/04/12 07:53:47;;;;;;;50.05;29.05;;;12.10;54.70;;;;;;5075366;28;20031;-76
2021/04/12 07:56:57;;;;;;;44.10;29.60;;;12.10;54.60;;;;;;5075690;28;20109;-76
2021/04/12 07:59:57;;;;;;;46.00;30.60;;;12.10;54.80;;;;;;5074794;28;20051;-77
2021/04/12 08:02:53;;;;;;;41.25;26.98;;;12.20;54.80;;;;;;5075225;28;20027;-76
2021/04/12 08:05:47;;;;;;;42.22;27.17;;;12.30;54.80;;;;;;5075224;28;20058;-76
2021/04/12 08:08:17;;;;;;;45.33;29.20;;;12.40;54.90;;;;;;5075674;28;20028;-77
2021/04/12 08:11:20;;;;;;;41.90;28.67;;;12.50;54.60;;;;;;5075111;28;20044;-76
2021/04/12 08:14:11;;;;;;;49.90;29.65;;;12.60;54.70;;;;;;5075801;28;20044;-77
2021/04/12 08:17:14;;;;;;;39.17;27.42;;;12.80;54.30;;;;;;5075349;28;20039;-75
2021/04/12 08:19:48;;;;;;;42.40;28.02;;;13.00;54.20;;;;;;5075260;28;20123;-76
2021/04/12 08:22:51;;;;;;;44.38;28.23;;;13.20;53.90;;;;;;5074812;28;20131;-78
2021/04/12 08:25:20;;;;;;;44.55;29.08;;;13.70;53.80;;;;;;5074693;28;20033;-76
2021/04/12 08:28:10;;;;;;;41.63;28.35;;;14.30;53.10;;;;;;5074669;28;20035;-75
2021/04/12 08:31:23;;;;;;;40.45;28.88;;;14.70;52.30;;;;;;5073511;28;20032;-76
2021/04/12 08:34:26;;;;;;;40.75;27.67;;;15.10;51.50;;;;;;5074887;28;20040;-76
2021/04/12 08:37:10;;;;;;;38.30;26.42;;;15.30;50.90;;;;;;5074677;28;20490;-78
2021/04/12 08:40:11;;;;;;;40.50;27.67;;;15.50;50.40;;;;;;5074646;28;20440;-76
2021/04/12 08:42:56;;;;;;;39.47;28.13;;;15.80;50.00;;;;;;5073491;28;20120;-77
2021/04/12 08:46:14;;;;;;;35.58;26.58;;;15.90;49.50;;;;;;5074530;28;20416;-77
2021/04/12 08:49:10;;;;;;;39.08;28.15;;;16.20;49.10;;;;;;5048206;28;20041;-78
2021/04/12 08:51:54;;;;;;;39.92;26.20;;;16.40;48.80;;;;;;5073314;28;20070;-77
2021/04/12 08:54:29;;;;;;;39.90;27.70;;;16.50;48.40;;;;;;5071307;28;20039;-77
2021/04/12 08:57:36;;;;;;;39.95;27.30;;;16.50;48.10;;;;;;5073402;28;20083;-76
2021/04/12 09:00:23;;;;;;;43.15;28.63;;;16.40;48.00;;;;;;5069717;28;20120;-77
2021/04/12 09:03:26;;;;;;;41.42;28.73;;;16.40;48.00;;;;;;5072116;28;20050;-76
2021/04/12 09:06:27;;;;;;;42.00;27.85;;;16.50;47.90;;;;;;5072624;28;20028;-75
2021/04/12 09:09:11;;;;;;;40.53;27.80;;;16.60;47.80;;;;;;5072618;28;20490;-77
2021/04/12 09:12:07;;;;;;;35.70;25.88;;;16.60;47.50;;;;;;5071171;28;20036;-76
2021/04/12 09:14:32;;;;;;;35.95;25.65;;;16.60;47.50;;;;;;5071162;28;20016;-76
2021/04/12 09:17:36;;;;;;;35.15;25.80;;;16.70;47.50;;;;;;5072680;28;20090;-79
2021/04/12 09:20:05;;;;;;;38.65;26.20;;;16.70;48.10;;;;;;5071626;28;20040;-79
2021/04/12 09:22:47;;;;;;;38.92;26.65;;;16.70;47.20;;;;;;5073292;28;20374;-77
2021/04/12 09:25:27;;;;;;;37.30;25.98;;;16.70;47.30;;;;;;5072864;28;20025;-78
2021/04/12 09:28:14;;;;;;;35.53;25.27;;;16.70;47.30;;;;;;5069167;28;20025;-76
2021/04/12 09:31:04;;;;;;;37.40;25.52;;;16.70;47.30;;;;;;5070245;28;20029;-77
2021/04/12 09:33:42;;;;;;;34.15;24.52;;;16.80;47.40;;;;;;5071774;28;20095;-76
2021/04/12 09:36:14;;;;;;;39.13;27.08;;;16.80;47.30;;;;;;5070338;28;20024;-76
2021/04/12 09:38:45;;;;;;;34.55;25.73;;;16.80;47.30;;;;;;5072433;28;20027;-76
2021/04/12 09:41:48;;;;;;;36.35;26.17;;;16.70;47.30;;;;;;5073398;28;20024;-75
2021/04/12 09:44:20;;;;;;;36.88;26.25;;;16.60;47.50;;;;;;5073136;28;20074;-77
2021/04/12 09:47:10;;;;;;;37.65;25.02;;;16.40;47.50;;;;;;5061635;28;20066;-76
2021/04/12 09:50:14;;;;;;;37.03;25.45;;;16.40;47.70;;;;;;5063775;28;20478;-77
2021/04/12 09:52:48;;;;;;;39.40;25.35;;;16.40;47.70;;;;;;5042387;28;20133;-77
2021/04/12 09:55:16;;;;;;;35.50;24.83;;;16.40;47.70;;;;;;5053545;28;20044;-77
2021/04/12 09:58:11;;;;;;;37.30;24.80;;;16.30;47.70;;;;;;5052725;28;20364;-77
2021/04/12 10:00:40;;;;;;;;;;;16.10;47.90;;;;;;5071124;28;20029;-76
2021/04/12 10:03:38;;;;;;;33.45;24.02;;;16.00;47.80;;;;;;5073222;28;19911;-76
2021/04/12 10:06:22;;;;;;;36.10;24.92;;;16.00;48.00;;;;;;5071473;28;20082;-76
2021/04/12 10:09:17;;;;;;;36.03;25.05;;;15.90;48.20;;;;;;5072225;28;20031;-76
2021/04/12 10:12:12;;;;;;;47.17;25.10;;;15.80;48.50;;;;;;5067128;28;20039;-77
2021/04/12 10:14:46;;;;;;;36.65;25.63;;;15.60;48.70;;;;;;5069526;28;20273;-77
2021/04/12 10:17:17;;;;;;;37.70;26.13;;;15.60;48.90;;;;;;5069894;28;20021;-77
2021/04/12 10:19:54;;;;;;;35.67;24.17;;;15.50;49.00;;;;;;5071608;28;20052;-77
2021/04/12 10:22:41;;;;;;;34.97;24.25;;;15.50;49.10;;;;;;5070815;28;20352;-77
2021/04/12 10:25:27;;;;;;;35.10;23.85;;;15.50;49.30;;;;;;5078111;28;20012;-76
2021/04/12 10:28:18;;;;;;;35.90;25.55;;;15.50;49.30;;;;;;5076231;28;20028;-78
2021/04/12 10:30:50;;;;;;;34.80;25.00;;;15.60;49.30;;;;;;5077047;28;20136;-77
2021/04/12 10:33:31;;;;;;;35.70;24.48;;;15.60;49.30;;;;;;5077711;28;20016;-78
2021/04/12 10:36:02;;;;;;;34.78;24.40;;;15.50;49.30;;;;;;5076702;28;20020;-77
2021/04/12 10:38:35;;;;;;;31.30;23.75;;;15.50;49.40;;;;;;5074139;28;20462;-77
2021/04/12 10:41:23;;;;;;;36.58;24.77;;;15.30;49.50;;;;;;5078315;28;20032;-79
2021/04/12 10:43:52;;;;;;;31.00;23.33;;;15.30;49.70;;;;;;5075107;28;20044;-77
2021/04/12 10:46:30;;;;;;;29.85;22.88;;;15.10;49.90;;;;;;5077824;28;20025;-76
2021/04/12 10:49:24;;;;;;;33.38;23.83;;;15.10;50.10;;;;;;5076036;28;20059;-77
2021/04/12 10:51:56;;;;;;;36.22;25.02;;;15.10;50.20;;;;;;5074471;28;20037;-76
2021/04/12 10:54:24;;;;;;;37.78;23.88;;;15.10;50.20;;;;;;5077558;28;20047;-77
2021/04/12 10:57:34;;;;;;;34.83;24.42;;;15.10;50.40;;;;;;5075374;28;20020;-77
2021/04/12 11:00:23;;;;;;;31.08;23.60;;;15.20;50.60;;;;;;5066023;28;20082;-77
2021/04/12 11:03:15;;;;;;;33.33;24.40;;;15.20;50.50;;;;;;5075461;28;20023;-77
2021/04/12 11:05:46;;;;;;;35.22;23.20;;;15.20;50.60;;;;;;5074628;28;20028;-78
2021/04/12 11:08:23;;;;;;;33.33;22.75;;;15.20;50.80;;;;;;5075635;28;20405;-81
2021/04/12 11:11:05;;;;;;;36.10;21.30;;;15.30;50.80;;;;;;5076568;28;20039;-77
2021/04/12 11:13:42;;;;;;;30.13;23.15;;;15.30;50.60;;;;;;5075761;28;20013;-76
2021/04/12 11:16:29;;;;;;;35.03;21.98;;;15.30;50.60;;;;;;5077649;28;20029;-76
2021/04/12 11:19:21;;;;;;;31.92;22.70;;;15.30;50.90;;;;;;5075781;28;20127;-77
2021/04/12 11:22:10;;;;;;;31.40;21.83;;;15.30;50.90;;;;;;5077985;28;20017;-76
2021/04/12 11:24:42;;;;;;;33.88;22.83;;;15.30;50.90;;;;;;5076432;28;20028;-76
2021/04/12 11:27:33;;;;;;;31.00;21.55;;;15.40;51.00;;;;;;5078031;28;20025;-75
2021/04/12 11:30:19;;;;;;;32.70;22.75;;;15.50;51.10;;;;;;5076546;28;20119;-76
2021/04/12 11:33:05;;;;;;;33.25;23.27;;;15.60;51.20;;;;;;5077366;28;20035;-77
2021/04/12 11:35:49;;;;;;;32.95;24.10;;;15.60;51.20;;;;;;5072533;28;20016;-76
2021/04/12 11:38:19;;;;;;;38.47;23.30;;;15.60;51.10;;;;;;5072948;28;20029;-77
2021/04/12 11:40:59;;;;;;;33.20;21.63;;;15.60;51.00;;;;;;5074541;28;20029;-78
2021/04/12 11:43:29;;;;;;;33.42;23.08;;;15.50;51.10;;;;;;5074307;28;20485;-77
2021/04/12 11:46:08;;;;;;;35.63;21.85;;;15.50;51.20;;;;;;5074121;28;20061;-76
2021/04/12 11:48:55;;;;;;;33.92;21.23;;;15.50;51.30;;;;;;5071038;28;20099;-77
2021/04/12 11:51:35;;;;;;;27.70;19.48;;;15.50;51.50;;;;;;5073849;28;20064;-77
2021/04/12 11:54:04;;;;;;;38.55;20.52;;;15.40;51.60;;;;;;5075301;28;20073;-76
2021/04/12 11:56:59;;;;;;;34.10;20.05;;;15.40;51.50;;;;;;5075562;28;20059;-76
2021/04/12 11:59:36;;;;;;;29.92;20.15;;;15.40;51.60;;;;;;5075218;28;20037;-76
2021/04/12 12:02:31;;;;;;;29.20;19.35;;;15.40;51.60;;;;;;5075038;28;20025;-77
2021/04/12 12:05:11;;;;;;;29.02;19.88;;;15.30;51.80;;;;;;5073942;28;20119;-77
2021/04/12 12:07:47;;;;;;;29.23;18.23;;;15.40;51.90;;;;;;5073672;28;20032;-78
2021/04/12 12:10:25;;;;;;;31.67;20.17;;;15.40;51.90;;;;;;5073692;28;20032;-76
2021/04/12 12:13:08;;;;;;;34.72;20.50;;;15.30;51.90;;;;;;5073744;28;20023;-77
2021/04/12 12:16:01;;;;;;;28.85;19.05;;;15.40;52.10;;;;;;5071838;28;20095;-78
2021/04/12 12:18:30;;;;;;;28.95;19.10;;;15.40;52.10;;;;;;5073488;28;20505;-76
2021/04/12 12:21:08;;;;;;;27.48;19.02;;;15.50;52.00;;;;;;5073703;28;20489;-76
2021/04/12 12:23:58;;;;;;;31.02;20.63;;;15.50;52.10;;;;;;5072076;28;20060;-77
2021/04/12 12:26:42;;;;;;;35.75;21.83;;;15.50;52.10;;;;;;5070191;28;20378;-78
2021/04/12 12:29:17;;;;;;;30.63;21.35;;;15.50;52.10;;;;;;5070792;28;20517;-79
2021/04/12 12:32:09;;;;;;;33.63;20.00;;;15.50;52.30;;;;;;5073960;28;20116;-77
2021/04/12 12:34:57;;;;;;;33.00;19.55;;;15.50;52.30;;;;;;5074327;28;20028;-77
2021/04/12 12:38:00;;;;;;;40.78;19.30;;;15.50;52.20;;;;;;5072818;28;20123;-78
2021/04/12 12:40:35;;;;;;;57.95;19.65;;;15.50;52.30;;;;;;5072942;28;20040;-78
2021/04/12 12:43:07;;;;;;;49.88;19.35;;;15.50;52.30;;;;;;5074633;28;20028;-77
2021/04/12 12:45:40;;;;;;;61.10;20.40;;;15.50;52.30;;;;;;5074189;28;20031;-77
2021/04/12 12:48:13;;;;;;;26.38;18.33;;;15.60;52.30;;;;;;5073982;28;20459;-75
2021/04/12 12:50:57;;;;;;;35.93;18.93;;;15.60;52.30;;;;;;5073932;28;20038;-75
2021/04/12 12:53:34;;;;;;;30.08;18.55;;;15.70;52.30;;;;;;5071005;28;20024;-77
2021/04/12 12:56:05;;;;;;;25.45;17.55;;;15.80;52.20;;;;;;5071721;28;20028;-76
2021/04/12 12:58:31;;;;;;;28.17;18.17;;;15.90;52.10;;;;;;5073766;28;20024;-76
2021/04/12 13:01:01;;;;;;;31.08;18.92;;;16.00;52.00;;;;;;5071173;28;20021;-77
2021/04/12 13:03:35;;;;;;;29.75;18.35;;;16.10;52.60;;;;;;5073692;28;20025;-75
2021/04/12 13:06:15;;;;;;;30.10;19.58;;;16.10;51.80;;;;;;5071767;28;20024;-75
2021/04/12 13:09:19;;;;;;;27.65;18.75;;;16.30;51.70;;;;;;5068381;28;20059;-76
2021/04/12 13:11:48;;;;;;;24.98;17.70;;;16.40;51.40;;;;;;5063744;28;20029;-75
2021/04/12 13:14:36;;;;;;;29.85;17.60;;;16.40;51.20;;;;;;5063290;28;20028;-76
2021/04/12 13:17:15;;;;;;;23.90;17.60;;;16.40;51.30;;;;;;5064452;28;20021;-77
2021/04/12 13:19:51;;;;;;;31.65;18.15;;;16.30;51.20;;;;;;5064039;28;20067;-76
2021/04/12 13:22:24;;;;;;;26.48;18.17;;;16.30;51.30;;;;;;5064023;28;20043;-76
2021/04/12 13:24:50;;;;;;;33.75;19.23;;;16.20;51.40;;;;;;5062998;28;20025;-76
2021/04/12 13:27:22;;;;;;;24.10;17.60;;;16.20;51.50;;;;;;5062485;28;20016;-76
2021/04/12 13:30:06;;;;;;;33.58;19.23;;;16.20;51.70;;;;;;5067047;28;20465;-77
2021/04/12 13:32:40;;;;;;;32.03;19.00;;;16.20;51.60;;;;;;5071951;28;20115;-77
2021/04/12 13:35:18;;;;;;;26.10;17.52;;;16.30;51.60;;;;;;5071090;28;20029;-76
2021/04/12 13:37:50;;;;;;;28.48;18.20;;;16.30;51.50;;;;;;5073613;28;20028;-77
2021/04/12 13:40:34;;;;;;;27.48;17.55;;;16.30;51.50;;;;;;5073281;28;20029;-76
2021/04/12 13:43:04;;;;;;;30.35;19.42;;;16.30;51.40;;;;;;5072274;28;20054;-77
2021/04/12 13:45:37;;;;;;;39.78;24.55;;;16.30;51.30;;;;;;5073468;28;20060;-77
2021/04/12 13:48:25;;;;;;;32.53;19.42;;;16.40;51.20;;;;;;5072983;28;20029;-77
2021/04/12 13:50:51;;;;;;;25.55;17.48;;;16.30;51.20;;;;;;5069578;28;20094;-76
2021/04/12 13:53:43;;;;;;;31.98;18.23;;;16.30;51.00;;;;;;5072875;28;20036;-77
2021/04/12 13:56:19;;;;;;;25.17;16.80;;;16.30;51.20;;;;;;5072146;28;20402;-79
2021/04/12 13:58:58;;;;;;;31.77;18.50;;;16.20;51.30;;;;;;5070955;28;20025;-77
2021/04/12 14:01:35;;;;;;;25.00;17.85;;;16.20;51.50;;;;;;5069648;28;20455;-77